Leamington, Canada
Current Conditions -  °F | °C
As of 5:00 PM on Monday 24 Nov 2014 (Local Time) from CYQG Reporting Station
Overcast Overcast  
Wind Chill: 29°   Ceiling: 2500
Heat Index: 41°   Visibility: 15mi
Dew Point: 32°   Wind: 37mph
Humidity: 70%   Direction: 230°SW
Pressure: 29.47"   Gusts: 46mph
Location:  42.05°N, 82.6°W
Report Text: CYQG 242200Z 23032G40KT 15SM OVC025 05/00 A2947 RMK SC8 SLP982
Loading
Personal Weather Stations






























Interactive Weather Map New forecast layout! Learn more

10-Day Weather Forecast

Advertisements
Track Severe Weather on mobile